sensor_id;sensor_type;location;lat;lon;timestamp;pressure;altitude;pressure_sealevel;temperature;humidity
53699;BME280;68408;53.952;27.612;2023-06-14T00:02:04;1014.1;;;17;38.8
53699;BME280;68408;53.952;27.612;2023-06-14T00:07:14;1014.2;;;17;38.9
53699;BME280;68408;53.952;27.612;2023-06-14T00:12:24;1014.1;;;16.9;38.9
53699;BME280;68408;53.952;27.612;2023-06-14T00:16:48;1014.1;;;16.9;39
53699;BME280;68408;53.952;27.612;2023-06-14T00:21:44;1014.1;;;16.9;39.2
53699;BME280;68408;53.952;27.612;2023-06-14T00:26:40;1014.1;;;16.9;39.3
53699;BME280;68408;53.952;27.612;2023-06-14T00:32:20;1014.1;;;16.8;39.4
53699;BME280;68408;53.952;27.612;2023-06-14T00:36:58;1014;;;16.8;39.4
53699;BME280;68408;53.952;27.612;2023-06-14T00:42:04;1014;;;16.8;39.4
53699;BME280;68408;53.952;27.612;2023-06-14T00:47:16;1014;;;16.8;39.6
53699;BME280;68408;53.952;27.612;2023-06-14T00:52:23;1013.9;;;16.8;39.6
53699;BME280;68408;53.952;27.612;2023-06-14T00:56:38;1013.8;;;16.8;39.7
53699;BME280;68408;53.952;27.612;2023-06-14T01:01:40;1013.8;;;16.8;39.7
53699;BME280;68408;53.952;27.612;2023-06-14T01:07:15;1013.8;;;16.7;39.7
53699;BME280;68408;53.952;27.612;2023-06-14T01:12:24;1013.8;;;16.8;39.8
53699;BME280;68408;53.952;27.612;2023-06-14T01:16:57;1013.8;;;16.8;39.8
53699;BME280;68408;53.952;27.612;2023-06-14T01:21:40;1013.8;;;16.8;39.9
53699;BME280;68408;53.952;27.612;2023-06-14T01:27:14;1013.8;;;16.8;39.9
53699;BME280;68408;53.952;27.612;2023-06-14T01:32:14;1013.9;;;16.8;40
53699;BME280;68408;53.952;27.612;2023-06-14T01:37:16;1013.9;;;16.7;40.2
53699;BME280;68408;53.952;27.612;2023-06-14T01:41:54;1013.9;;;16.7;40.3
53699;BME280;68408;53.952;27.612;2023-06-14T01:46:56;1013.9;;;16.6;40.4
53699;BME280;68408;53.952;27.612;2023-06-14T01:52:22;1013.9;;;16.6;40.6
53699;BME280;68408;53.952;27.612;2023-06-14T01:56:56;1013.9;;;16.6;40.6
53699;BME280;68408;53.952;27.612;2023-06-14T02:02:12;1013.9;;;16.5;40.7
53699;BME280;68408;53.952;27.612;2023-06-14T02:07:16;1014;;;16.5;40.7
53699;BME280;68408;53.952;27.612;2023-06-14T02:12:22;1014.1;;;16.5;40.8
53699;BME280;68408;53.952;27.612;2023-06-14T02:16:38;1014;;;16.5;40.9
53699;BME280;68408;53.952;27.612;2023-06-14T02:22:04;1014;;;16.5;41
53699;BME280;68408;53.952;27.612;2023-06-14T02:27:16;1014;;;16.4;41
53699;BME280;68408;53.952;27.612;2023-06-14T02:32:20;1014;;;16.4;41.2
53699;BME280;68408;53.952;27.612;2023-06-14T02:36:48;1014;;;16.4;41.3
53699;BME280;68408;53.952;27.612;2023-06-14T02:42:04;1014;;;16.5;41.2
53699;BME280;68408;53.952;27.612;2023-06-14T02:47:16;1014;;;16.6;41.2
53699;BME280;68408;53.952;27.612;2023-06-14T02:52:22;1014.1;;;16.6;41.1
53699;BME280;68408;53.952;27.612;2023-06-14T02:57:10;1014.1;;;16.8;41
53699;BME280;68408;53.952;27.612;2023-06-14T03:02:06;1014.1;;;16.9;40.9
53699;BME280;68408;53.952;27.612;2023-06-14T03:06:50;1014.1;;;16.9;40.8
53699;BME280;68408;53.952;27.612;2023-06-14T03:12:22;1014.1;;;16.8;40.8
53699;BME280;68408;53.952;27.612;2023-06-14T03:16:46;1014.1;;;16.8;40.9
53699;BME280;68408;53.952;27.612;2023-06-14T03:21:56;1014.1;;;16.8;40.9
53699;BME280;68408;53.952;27.612;2023-06-14T03:27:14;1014.1;;;17;40.7
53699;BME280;68408;53.952;27.612;2023-06-14T03:32:12;1014.2;;;17.1;40.5
53699;BME280;68408;53.952;27.612;2023-06-14T03:36:46;1014.2;;;17.2;40.4
53699;BME280;68408;53.952;27.612;2023-06-14T03:42:04;1014.2;;;17.3;40.2
53699;BME280;68408;53.952;27.612;2023-06-14T03:47:16;1014.2;;;17.4;40.1
53699;BME280;68408;53.952;27.612;2023-06-14T03:52:20;1014.1;;;17.4;40
53699;BME280;68408;53.952;27.612;2023-06-14T03:56:38;1014.1;;;17.5;40
53699;BME280;68408;53.952;27.612;2023-06-14T04:02:04;1014.2;;;17.7;39.7
53699;BME280;68408;53.952;27.612;2023-06-14T04:07:16;1014.2;;;17.7;39.5
53699;BME280;68408;53.952;27.612;2023-06-14T04:12:22;1014.1;;;17.8;39.3
53699;BME280;68408;53.952;27.612;2023-06-14T04:16:49;1014.1;;;17.8;39.3
53699;BME280;68408;53.952;27.612;2023-06-14T04:22:06;1014.1;;;17.8;39.2
53699;BME280;68408;53.952;27.612;2023-06-14T04:27:14;1014.1;;;17.8;39
53699;BME280;68408;53.952;27.612;2023-06-14T04:32:23;1014.1;;;17.8;39
53699;BME280;68408;53.952;27.612;2023-06-14T04:36:56;1014.2;;;17.9;38.9
53699;BME280;68408;53.952;27.612;2023-06-14T04:42:04;1014.2;;;18;38.9
53699;BME280;68408;53.952;27.612;2023-06-14T04:47:16;1014.2;;;18.1;38.5
53699;BME280;68408;53.952;27.612;2023-06-14T04:52:22;1014.3;;;18;38.6
53699;BME280;68408;53.952;27.612;2023-06-14T04:56:38;1014.2;;;17.9;39
53699;BME280;68408;53.952;27.612;2023-06-14T05:02:04;1014.2;;;17.9;39.2
53699;BME280;68408;53.952;27.612;2023-06-14T05:07:02;1014.2;;;17.9;39.2
53699;BME280;68408;53.952;27.612;2023-06-14T05:12:24;1014.2;;;18;39.2
53699;BME280;68408;53.952;27.612;2023-06-14T05:16:38;1014.2;;;18.1;39.1
53699;BME280;68408;53.952;27.612;2023-06-14T05:22:06;1014.2;;;18.2;38.8
53699;BME280;68408;53.952;27.612;2023-06-14T05:27:06;1014.1;;;18.2;38.8
53699;BME280;68408;53.952;27.612;2023-06-14T05:32:22;1014.1;;;18.2;38.9
53699;BME280;68408;53.952;27.612;2023-06-14T05:36:38;1014.1;;;18.2;39
53699;BME280;68408;53.952;27.612;2023-06-14T05:42:04;1014.1;;;18.3;38.9
53699;BME280;68408;53.952;27.612;2023-06-14T05:47:16;1014.1;;;18.4;38.8
53699;BME280;68408;53.952;27.612;2023-06-14T05:52:22;1014.1;;;18.4;38.9
53699;BME280;68408;53.952;27.612;2023-06-14T05:56:50;1014.1;;;18.5;38.7
53699;BME280;68408;53.952;27.612;2023-06-14T06:02:06;1014.1;;;18.5;38.9
53699;BME280;68408;53.952;27.612;2023-06-14T06:06:52;1014.1;;;18.6;38.9
53699;BME280;68408;53.952;27.612;2023-06-14T06:12:24;1014.1;;;18.6;38.9
53699;BME280;68408;53.952;27.612;2023-06-14T06:16:46;1014.1;;;18.6;38.9
53699;BME280;68408;53.952;27.612;2023-06-14T06:21:48;1014;;;18.7;38.9
53699;BME280;68408;53.952;27.612;2023-06-14T06:27:26;1014;;;18.8;38.7
53699;BME280;68408;53.952;27.612;2023-06-14T06:32:26;1014;;;19;38.5
53699;BME280;68408;53.952;27.612;2023-06-14T06:36:38;1014.1;;;19.2;38.3
53699;BME280;68408;53.952;27.612;2023-06-14T06:42:00;1014.1;;;19.3;38
53699;BME280;68408;53.952;27.612;2023-06-14T06:47:16;1014.1;;;19.2;38
53699;BME280;68408;53.952;27.612;2023-06-14T06:52:24;1014.1;;;19.2;38.1
53699;BME280;68408;53.952;27.612;2023-06-14T06:56:38;1014.1;;;19.3;38.1
53699;BME280;68408;53.952;27.612;2023-06-14T07:02:00;1014.1;;;19.4;37.8
53699;BME280;68408;53.952;27.612;2023-06-14T07:07:16;1014;;;19.7;37.7
53699;BME280;68408;53.952;27.612;2023-06-14T07:12:24;1014;;;20.2;37.1
53699;BME280;68408;53.952;27.612;2023-06-14T07:16:38;1014.1;;;20.4;36.7
53699;BME280;68408;53.952;27.612;2023-06-14T07:22:08;1014.1;;;20.4;36.4
53699;BME280;68408;53.952;27.612;2023-06-14T07:27:18;1014;;;20.4;36.5
53699;BME280;68408;53.952;27.612;2023-06-14T07:31:38;1014;;;20.7;36.5
53699;BME280;68408;53.952;27.612;2023-06-14T07:36:56;1014;;;21;36.1
53699;BME280;68408;53.952;27.612;2023-06-14T07:42:01;1014;;;21;35.8
53699;BME280;68408;53.952;27.612;2023-06-14T07:47:06;1014;;;20.9;35.8
53699;BME280;68408;53.952;27.612;2023-06-14T07:52:06;1013.9;;;20.9;35.4
53699;BME280;68408;53.952;27.612;2023-06-14T07:57:12;1013.9;;;20.8;35.7
53699;BME280;68408;53.952;27.612;2023-06-14T08:01:58;1014;;;21.1;35.5
53699;BME280;68408;53.952;27.612;2023-06-14T08:07:06;1014;;;21;35.7
53699;BME280;68408;53.952;27.612;2023-06-14T08:12:07;1014.1;;;21;35.9
53699;BME280;68408;53.952;27.612;2023-06-14T08:17:00;1014.1;;;21;35.7
53699;BME280;68408;53.952;27.612;2023-06-14T08:21:56;1014.1;;;21.1;35.8
53699;BME280;68408;53.952;27.612;2023-06-14T08:26:54;1014.1;;;21.4;35.3
53699;BME280;68408;53.952;27.612;2023-06-14T08:32:04;1014.1;;;21.4;35.2
53699;BME280;68408;53.952;27.612;2023-06-14T08:36:40;1014.1;;;21.5;35.5
53699;BME280;68408;53.952;27.612;2023-06-14T08:41:47;1014;;;21.6;35.4
53699;BME280;68408;53.952;27.612;2023-06-14T08:46:52;1014;;;21.8;35.4
53699;BME280;68408;53.952;27.612;2023-06-14T08:51:38;1013.9;;;22;35.4
53699;BME280;68408;53.952;27.612;2023-06-14T08:57:11;1013.9;;;22.3;35.5
53699;BME280;68408;53.952;27.612;2023-06-14T09:02:00;1013.9;;;22.3;35.8
53699;BME280;68408;53.952;27.612;2023-06-14T09:07:12;1013.9;;;22.2;36.1
53699;BME280;68408;53.952;27.612;2023-06-14T09:11:54;1013.8;;;22.3;36.2
53699;BME280;68408;53.952;27.612;2023-06-14T09:16:40;1013.7;;;22.4;36.4
53699;BME280;68408;53.952;27.612;2023-06-14T09:21:49;1013.7;;;22.8;36.1
53699;BME280;68408;53.952;27.612;2023-06-14T09:26:39;1013.6;;;23.2;35.7
53699;BME280;68408;53.952;27.612;2023-06-14T09:31:50;1013.6;;;23.4;35.5
53699;BME280;68408;53.952;27.612;2023-06-14T09:37:12;1013.6;;;23.7;35.2
53699;BME280;68408;53.952;27.612;2023-06-14T09:42:02;1013.6;;;24;35
53699;BME280;68408;53.952;27.612;2023-06-14T09:47:06;1013.5;;;24.1;34.8
53699;BME280;68408;53.952;27.612;2023-06-14T09:52:07;1013.4;;;24.4;34.4
53699;BME280;68408;53.952;27.612;2023-06-14T09:57:13;1013.3;;;25;34.1
53699;BME280;68408;53.952;27.612;2023-06-14T10:01:40;1013.4;;;25.2;33.7
53699;BME280;68408;53.952;27.612;2023-06-14T10:06:39;1013.4;;;25.4;33.5
53699;BME280;68408;53.952;27.612;2023-06-14T10:11:38;1013.3;;;25.6;33.2
53699;BME280;68408;53.952;27.612;2023-06-14T10:17:13;1013.3;;;25.6;33
53699;BME280;68408;53.952;27.612;2023-06-14T10:21:51;1013.3;;;26;32.3
53699;BME280;68408;53.952;27.612;2023-06-14T10:27:00;1013.2;;;26.4;31.7
53699;BME280;68408;53.952;27.612;2023-06-14T10:31:55;1013.3;;;26.2;31.4
53699;BME280;68408;53.952;27.612;2023-06-14T10:37:11;1013.2;;;26.4;31.3
53699;BME280;68408;53.952;27.612;2023-06-14T10:42:01;1013.1;;;26.7;31.2
53699;BME280;68408;53.952;27.612;2023-06-14T10:46:39;1013.1;;;26.9;30.6
53699;BME280;68408;53.952;27.612;2023-06-14T10:52:07;1013.1;;;27;30.9
53699;BME280;68408;53.952;27.612;2023-06-14T10:57:12;1013.1;;;26.7;31.4
53699;BME280;68408;53.952;27.612;2023-06-14T11:02:06;1013.1;;;26.4;31.8
53699;BME280;68408;53.952;27.612;2023-06-14T11:06:54;1013.2;;;26.2;32.1
53699;BME280;68408;53.952;27.612;2023-06-14T11:11:38;1013.2;;;25.8;32.7
53699;BME280;68408;53.952;27.612;2023-06-14T11:16:47;1013.2;;;25.5;33.2
53699;BME280;68408;53.952;27.612;2023-06-14T11:21:48;1013.3;;;25.2;33.6
53699;BME280;68408;53.952;27.612;2023-06-14T11:27:06;1013.3;;;25.1;33.4
53699;BME280;68408;53.952;27.612;2023-06-14T11:31:54;1013.2;;;25.2;33.1
53699;BME280;68408;53.952;27.612;2023-06-14T11:37:15;1013.2;;;25.3;32.7
53699;BME280;68408;53.952;27.612;2023-06-14T11:41:41;1013.2;;;25.4;32.4
53699;BME280;68408;53.952;27.612;2023-06-14T11:47:06;1013.2;;;25.5;32
53699;BME280;68408;53.952;27.612;2023-06-14T11:51:38;1013.1;;;25.6;31.9
53699;BME280;68408;53.952;27.612;2023-06-14T11:57:14;1013.1;;;25.8;31.6
53699;BME280;68408;53.952;27.612;2023-06-14T12:01:38;1013.1;;;25.9;31.4
53699;BME280;68408;53.952;27.612;2023-06-14T12:07:10;1013.1;;;25.7;31.5
53699;BME280;68408;53.952;27.612;2023-06-14T12:12:07;1013.2;;;25.4;31.8
53699;BME280;68408;53.952;27.612;2023-06-14T12:17:16;1013.2;;;25.5;31.9
53699;BME280;68408;53.952;27.612;2023-06-14T12:22:03;1013.2;;;25.7;31.5
53699;BME280;68408;53.952;27.612;2023-06-14T12:26:56;1013.1;;;25.8;31.5
53699;BME280;68408;53.952;27.612;2023-06-14T12:31:38;1013.1;;;26;31.2
53699;BME280;68408;53.952;27.612;2023-06-14T12:37:08;1013;;;26.4;30.8
53699;BME280;68408;53.952;27.612;2023-06-14T12:42:20;1012.9;;;26.9;30.4
53699;BME280;68408;53.952;27.612;2023-06-14T12:46:39;1012.8;;;27.6;29.6
53699;BME280;68408;53.952;27.612;2023-06-14T12:51:50;1012.9;;;27.5;29.2
53699;BME280;68408;53.952;27.612;2023-06-14T12:56:42;1012.9;;;27.1;29.3
53699;BME280;68408;53.952;27.612;2023-06-14T13:01:48;1012.9;;;26.7;29.9
53699;BME280;68408;53.952;27.612;2023-06-14T13:06:50;1012.8;;;26.5;30.1
53699;BME280;68408;53.952;27.612;2023-06-14T13:11:38;1012.8;;;26.2;30.4
53699;BME280;68408;53.952;27.612;2023-06-14T13:16:56;1012.7;;;26.2;30.3
53699;BME280;68408;53.952;27.612;2023-06-14T13:21:50;1012.7;;;26.6;30.1
53699;BME280;68408;53.952;27.612;2023-06-14T13:27:06;1012.7;;;27.1;29.5
53699;BME280;68408;53.952;27.612;2023-06-14T13:31:38;1012.6;;;27;29.4
53699;BME280;68408;53.952;27.612;2023-06-14T13:36:55;1012.6;;;26.8;29.8
53699;BME280;68408;53.952;27.612;2023-06-14T13:42:00;1012.6;;;27;29.7
53699;BME280;68408;53.952;27.612;2023-06-14T13:46:54;1012.7;;;26.6;30.3
53699;BME280;68408;53.952;27.612;2023-06-14T13:52:05;1012.8;;;26;31.2
53699;BME280;68408;53.952;27.612;2023-06-14T13:56:38;1012.9;;;25.9;31.4
53699;BME280;68408;53.952;27.612;2023-06-14T14:01:50;1012.9;;;25.9;31.4
53699;BME280;68408;53.952;27.612;2023-06-14T14:06:50;1012.9;;;26.2;31.2
53699;BME280;68408;53.952;27.612;2023-06-14T14:11:38;1013;;;26;31.6
53699;BME280;68408;53.952;27.612;2023-06-14T14:16:54;1013;;;26;31.6
53699;BME280;68408;53.952;27.612;2023-06-14T14:21:50;1012.9;;;26.1;31.8
53699;BME280;68408;53.952;27.612;2023-06-14T14:27:28;1012.8;;;26.4;31.7
53699;BME280;68408;53.952;27.612;2023-06-14T14:31:50;1012.9;;;26.2;31.6
53699;BME280;68408;53.952;27.612;2023-06-14T14:36:54;1012.9;;;25.9;32.2
53699;BME280;68408;53.952;27.612;2023-06-14T14:41:38;1013;;;25.6;32.8
53699;BME280;68408;53.952;27.612;2023-06-14T14:46:38;1013;;;25.4;33.3
53699;BME280;68408;53.952;27.612;2023-06-14T14:51:50;1012.9;;;25.5;33.5
53699;BME280;68408;53.952;27.612;2023-06-14T14:56:42;1012.9;;;25.6;33.4
53699;BME280;68408;53.952;27.612;2023-06-14T15:02:00;1012.9;;;25.7;33.5
53699;BME280;68408;53.952;27.612;2023-06-14T15:07:26;1012.9;;;25.9;33.3
53699;BME280;68408;53.952;27.612;2023-06-14T15:11:38;1012.9;;;25.9;33.5
53699;BME280;68408;53.952;27.612;2023-06-14T15:16:54;1012.9;;;25.8;33.7
53699;BME280;68408;53.952;27.612;2023-06-14T15:22:03;1012.9;;;25.7;34
53699;BME280;68408;53.952;27.612;2023-06-14T15:27:12;1012.9;;;25.5;34.1
53699;BME280;68408;53.952;27.612;2023-06-14T15:32:20;1012.8;;;25.5;34.2
53699;BME280;68408;53.952;27.612;2023-06-14T15:36:56;1012.8;;;25.5;34.3
53699;BME280;68408;53.952;27.612;2023-06-14T15:42:03;1012.8;;;25.7;34.1
53699;BME280;68408;53.952;27.612;2023-06-14T15:46:38;1012.8;;;25.6;34.2
53699;BME280;68408;53.952;27.612;2023-06-14T15:51:50;1012.7;;;25.6;34.2
53699;BME280;68408;53.952;27.612;2023-06-14T15:56:56;1012.8;;;25.6;34.1
53699;BME280;68408;53.952;27.612;2023-06-14T16:02:00;1012.7;;;25.9;33.9
53699;BME280;68408;53.952;27.612;2023-06-14T16:07:07;1012.7;;;26.2;33.5
53699;BME280;68408;53.952;27.612;2023-06-14T16:11:39;1012.6;;;26.4;33.1
53699;BME280;68408;53.952;27.612;2023-06-14T16:16:55;1012.6;;;26.6;32.9
53699;BME280;68408;53.952;27.612;2023-06-14T16:22:03;1012.6;;;26.4;32.6
53699;BME280;68408;53.952;27.612;2023-06-14T16:27:07;1012.7;;;26.4;32.6
53699;BME280;68408;53.952;27.612;2023-06-14T16:32:21;1012.7;;;26.5;32.3
53699;BME280;68408;53.952;27.612;2023-06-14T16:36:54;1012.7;;;26;32.9
53699;BME280;68408;53.952;27.612;2023-06-14T16:42:07;1012.8;;;25.7;33.5
53699;BME280;68408;53.952;27.612;2023-06-14T16:46:39;1012.8;;;25.4;33.9
53699;BME280;68408;53.952;27.612;2023-06-14T16:51:55;1012.8;;;25.3;34.2
53699;BME280;68408;53.952;27.612;2023-06-14T16:56:55;1012.9;;;25.2;34.4
53699;BME280;68408;53.952;27.612;2023-06-14T17:01:39;1012.8;;;25.1;34.6
53699;BME280;68408;53.952;27.612;2023-06-14T17:07:13;1012.8;;;25.2;34.6
53699;BME280;68408;53.952;27.612;2023-06-14T17:11:39;1012.8;;;25.3;34.5
53699;BME280;68408;53.952;27.612;2023-06-14T17:17:19;1012.8;;;25.3;34.5
53699;BME280;68408;53.952;27.612;2023-06-14T17:22:01;1012.8;;;25.4;34.2
53699;BME280;68408;53.952;27.612;2023-06-14T17:27:07;1012.8;;;25.4;34.1
53699;BME280;68408;53.952;27.612;2023-06-14T18:02:03;1012.9;;;24.6;35.3
53699;BME280;68408;53.952;27.612;2023-06-14T18:06:51;1012.9;;;24.6;35.3
53699;BME280;68408;53.952;27.612;2023-06-14T18:12:09;1012.9;;;24.6;35.3
53699;BME280;68408;53.952;27.612;2023-06-14T18:16:55;1012.9;;;23.9;36.3
53699;BME280;68408;53.952;27.612;2023-06-14T18:21:39;1012.9;;;23.6;36.5
53699;BME280;68408;53.952;27.612;2023-06-14T18:27:07;1013;;;23.5;36.7
53699;BME280;68408;53.952;27.612;2023-06-14T18:31:39;1013;;;23.4;36.8
53699;BME280;68408;53.952;27.612;2023-06-14T18:36:47;1013;;;23.3;36.8
53699;BME280;68408;53.952;27.612;2023-06-14T18:41:51;1013;;;23.2;36.9
53699;BME280;68408;53.952;27.612;2023-06-14T18:47:07;1013.1;;;23.1;37
53699;BME280;68408;53.952;27.612;2023-06-14T18:51:39;1013.1;;;23.1;37.1
53699;BME280;68408;53.952;27.612;2023-06-14T18:56:59;1013.1;;;23.1;37.3
53699;BME280;68408;53.952;27.612;2023-06-14T19:01:39;1013.1;;;23.1;37.4
53699;BME280;68408;53.952;27.612;2023-06-14T19:07:05;1013;;;23.1;37.6
53699;BME280;68408;53.952;27.612;2023-06-14T19:11:45;1013.1;;;23;38
53699;BME280;68408;53.952;27.612;2023-06-14T19:16:57;1013.1;;;22.9;38
53699;BME280;68408;53.952;27.612;2023-06-14T19:22:03;1013;;;22.9;38.2
53699;BME280;68408;53.952;27.612;2023-06-14T19:27:05;1013;;;22.9;38.3
53699;BME280;68408;53.952;27.612;2023-06-14T19:31:57;1013.1;;;22.8;38.4
53699;BME280;68408;53.952;27.612;2023-06-14T19:36:39;1013.1;;;22.8;38.6
53699;BME280;68408;53.952;27.612;2023-06-14T19:42:03;1013.1;;;22.8;38.8
53699;BME280;68408;53.952;27.612;2023-06-14T19:46:39;1013.1;;;22.7;38.9
53699;BME280;68408;53.952;27.612;2023-06-14T19:51:51;1013.1;;;22.7;39.1
53699;BME280;68408;53.952;27.612;2023-06-14T19:56:57;1013.1;;;22.6;39.2
53699;BME280;68408;53.952;27.612;2023-06-14T20:02:01;1013.1;;;22.6;39.5
53699;BME280;68408;53.952;27.612;2023-06-14T20:07:05;1013.1;;;22.5;39.6
53699;BME280;68408;53.952;27.612;2023-06-14T20:11:51;1013.1;;;22.5;39.8
53699;BME280;68408;53.952;27.612;2023-06-14T20:17:07;1013.1;;;22.5;40
53699;BME280;68408;53.952;27.612;2023-06-14T20:21:59;1013.1;;;22.4;40.3
53699;BME280;68408;53.952;27.612;2023-06-14T20:26:53;1013.2;;;22.3;40.3
53699;BME280;68408;53.952;27.612;2023-06-14T20:31:39;1013.2;;;22.3;40.4
53699;BME280;68408;53.952;27.612;2023-06-14T20:36:57;1013.2;;;22.2;40.6
53699;BME280;68408;53.952;27.612;2023-06-14T20:41:59;1013.2;;;22.2;40.7
53699;BME280;68408;53.952;27.612;2023-06-14T20:47:05;1013.2;;;22.1;40.7
53699;BME280;68408;53.952;27.612;2023-06-14T20:51:57;1013.2;;;22.1;40.8
53699;BME280;68408;53.952;27.612;2023-06-14T20:56:51;1013.3;;;22.1;40.9
53699;BME280;68408;53.952;27.612;2023-06-14T21:02:27;1013.3;;;22.1;41.1
53699;BME280;68408;53.952;27.612;2023-06-14T21:06:59;1013.3;;;22.1;41
53699;BME280;68408;53.952;27.612;2023-06-14T21:11:39;1013.3;;;22;41.1
53699;BME280;68408;53.952;27.612;2023-06-14T21:17:13;1013.3;;;22;41.1
53699;BME280;68408;53.952;27.612;2023-06-14T21:22:11;1013.3;;;22;41.3
53699;BME280;68408;53.952;27.612;2023-06-14T21:27:05;1013.3;;;21.9;41.3
53699;BME280;68408;53.952;27.612;2023-06-14T21:31:51;1013.3;;;21.9;41.3
53699;BME280;68408;53.952;27.612;2023-06-14T21:36:49;1013.3;;;21.9;41.4
53699;BME280;68408;53.952;27.612;2023-06-14T21:41:39;1013.3;;;21.8;41.4
53699;BME280;68408;53.952;27.612;2023-06-14T21:47:11;1013.3;;;21.8;41.5
53699;BME280;68408;53.952;27.612;2023-06-14T21:51:49;1013.3;;;21.7;41.7
53699;BME280;68408;53.952;27.612;2023-06-14T21:56:49;1013.3;;;21.7;41.8
53699;BME280;68408;53.952;27.612;2023-06-14T22:01:59;1013.3;;;21.7;42
53699;BME280;68408;53.952;27.612;2023-06-14T22:07:11;1013.3;;;21.6;42.1
53699;BME280;68408;53.952;27.612;2023-06-14T22:11:39;1013.3;;;21.6;42.2
53699;BME280;68408;53.952;27.612;2023-06-14T22:16:55;1013.3;;;21.6;42.2
53699;BME280;68408;53.952;27.612;2023-06-14T22:21:49;1013.3;;;21.5;42.2
53699;BME280;68408;53.952;27.612;2023-06-14T22:27:11;1013.2;;;21.6;42.2
53699;BME280;68408;53.952;27.612;2023-06-14T22:31:49;1013.2;;;21.5;42.2
53699;BME280;68408;53.952;27.612;2023-06-14T22:36:55;1013.1;;;21.5;42.2
53699;BME280;68408;53.952;27.612;2023-06-14T22:41:59;1013.1;;;21.5;42.1
53699;BME280;68408;53.952;27.612;2023-06-14T22:47:11;1013.1;;;21.5;42.2
53699;BME280;68408;53.952;27.612;2023-06-14T22:51:55;1013.1;;;21.5;42.1
53699;BME280;68408;53.952;27.612;2023-06-14T22:56:39;1013.1;;;21.5;42
53699;BME280;68408;53.952;27.612;2023-06-14T23:01:39;1013.1;;;21.5;41.8
53699;BME280;68408;53.952;27.612;2023-06-14T23:07:05;1013.1;;;21.6;41.6
53699;BME280;68408;53.952;27.612;2023-06-14T23:11:49;1013.1;;;21.6;41.4
53699;BME280;68408;53.952;27.612;2023-06-14T23:16:53;1013.1;;;21.7;41.3
53699;BME280;68408;53.952;27.612;2023-06-14T23:22:01;1013.1;;;21.7;41.1
53699;BME280;68408;53.952;27.612;2023-06-14T23:27:23;1013.1;;;21.7;41.1
53699;BME280;68408;53.952;27.612;2023-06-14T23:31:49;1013.1;;;21.7;41
53699;BME280;68408;53.952;27.612;2023-06-14T23:37:09;1013.1;;;21.7;41
53699;BME280;68408;53.952;27.612;2023-06-14T23:42:01;1013.1;;;21.7;41
53699;BME280;68408;53.952;27.612;2023-06-14T23:47:11;1013.1;;;21.6;41
53699;BME280;68408;53.952;27.612;2023-06-14T23:51:49;1013.1;;;21.6;41
53699;BME280;68408;53.952;27.612;2023-06-14T23:57:11;1013.1;;;21.6;41.2
